Time;durP1;ratioP1;P1;durP2;ratioP2;P2;SDS_P1;SDS_P2;PMS_P1;PMS_P2;Temp;Humidity;BMP_temperature;BMP_pressure;BME280_temperature;BME280_humidity;BME280_pressure;Samples;Min_cycle;Max_cycle;Signal;HPM_P1;HPM_P2
2021/07/26 00:00:22;;;;;;;10.70;4.53;;;;;;;20.76;71.83;100753.38;5054314;28;20055;-57
2021/07/26 00:02:50;;;;;;;6.07;3.85;;;;;;;20.76;71.88;100747.84;5072083;28;20041;-54
2021/07/26 00:05:17;;;;;;;8.15;4.05;;;;;;;20.70;71.77;100744.47;5072107;28;20051;-56
2021/07/26 00:07:45;;;;;;;7.75;3.75;;;;;;;20.71;72.05;100753.56;5071987;28;20044;-52
2021/07/26 00:10:13;;;;;;;7.63;4.20;;;;;;;20.72;72.10;100747.72;5072089;28;20044;-56
2021/07/26 00:12:40;;;;;;;12.77;4.47;;;;;;;20.75;72.16;100735.13;5071503;28;20045;-55
2021/07/26 00:15:08;;;;;;;14.77;4.30;;;;;;;20.75;72.06;100744.25;5071938;28;20045;-56
2021/07/26 00:17:35;;;;;;;9.60;4.60;;;;;;;20.76;71.93;100742.31;5072316;28;20051;-57
2021/07/26 00:20:04;;;;;;;8.48;4.90;;;;;;;20.73;72.11;100741.00;5071905;28;20049;-56
2021/07/26 00:22:31;;;;;;;10.73;4.45;;;;;;;20.69;72.26;100742.84;5072158;28;20070;-56
2021/07/26 00:24:59;;;;;;;9.00;4.72;;;;;;;20.67;72.45;100739.59;5071706;28;20045;-56
2021/07/26 00:27:26;;;;;;;8.25;4.80;;;;;;;20.66;72.64;100738.00;5071953;28;20107;-56
2021/07/26 00:29:57;;;;;;;8.80;4.80;;;;;;;20.64;72.62;100731.97;5054724;28;20037;-54
2021/07/26 00:32:28;;;;;;;8.93;4.93;;;;;;;20.59;72.88;100733.00;5071964;28;20049;-57
2021/07/26 00:35:04;;;;;;;8.32;5.10;;;;;;;20.52;73.02;100732.69;5069979;28;20059;-54
2021/07/26 00:37:32;;;;;;;9.30;4.85;;;;;;;20.44;73.45;100730.78;5072457;28;20052;-57
2021/07/26 00:40:05;;;;;;;8.23;4.88;;;;;;;20.37;73.77;100722.22;5075526;28;20029;-53
2021/07/26 00:42:33;;;;;;;7.15;4.32;;;;;;;20.30;74.03;100724.72;5075739;28;20037;-58
2021/07/26 00:45:00;;;;;;;10.32;4.80;;;;;;;20.29;74.04;100723.91;5057731;28;20126;-57
2021/07/26 00:47:28;;;;;;;8.95;5.00;;;;;;;20.29;73.95;100718.38;5057834;28;20051;-56
2021/07/26 00:49:56;;;;;;;11.13;4.93;;;;;;;20.26;74.15;100719.03;5075839;28;20044;-57
2021/07/26 00:52:24;;;;;;;8.32;4.60;;;;;;;20.27;74.35;100720.66;5057796;28;20048;-58
2021/07/26 00:54:53;;;;;;;10.50;4.90;;;;;;;20.28;74.11;100722.28;5075489;28;20102;-54
2021/07/26 00:57:22;;;;;;;8.35;5.32;;;;;;;20.31;74.15;100724.38;5057789;28;20072;-54
2021/07/26 00:59:50;;;;;;;7.85;4.97;;;;;;;20.32;74.08;100723.22;5057793;28;20048;-53
2021/07/26 01:02:18;;;;;;;9.80;5.03;;;;;;;20.34;74.06;100725.66;5075322;28;20075;-57
2021/07/26 01:04:46;;;;;;;9.55;5.38;;;;;;;20.34;73.73;100715.41;5075215;28;20040;-56
2021/07/26 01:07:14;;;;;;;10.25;5.45;;;;;;;20.35;73.82;100733.63;5075322;28;20384;-55
2021/07/26 01:09:41;;;;;;;12.65;5.70;;;;;;;20.36;73.84;100734.44;5074751;28;20059;-57
2021/07/26 01:12:09;;;;;;;11.27;5.20;;;;;;;20.36;73.83;100726.94;5057629;28;20052;-55
2021/07/26 01:14:37;;;;;;;9.00;5.18;;;;;;;20.35;73.67;100730.88;5075167;28;20238;-56
2021/07/26 01:17:08;;;;;;;12.05;4.85;;;;;;;20.29;73.76;100737.72;5057338;28;20040;-56
2021/07/26 01:19:36;;;;;;;7.65;4.38;;;;;;;20.29;73.71;100729.44;5075153;28;20076;-55
2021/07/26 01:22:03;;;;;;;8.40;5.38;;;;;;;20.26;73.81;100741.19;5056957;28;20402;-53
2021/07/26 01:24:31;;;;;;;8.95;5.60;;;;;;;20.27;73.84;100731.72;5074580;28;20056;-56
2021/07/26 01:26:58;;;;;;;9.75;5.22;;;;;;;20.26;73.87;100741.19;5075125;28;20047;-56
2021/07/26 01:29:26;;;;;;;10.52;4.85;;;;;;;20.26;73.86;100737.59;5074748;28;20037;-56
2021/07/26 01:31:53;;;;;;;11.00;5.65;;;;;;;20.28;73.83;100738.09;5074872;28;20056;-58
2021/07/26 01:34:21;;;;;;;9.18;5.55;;;;;;;20.29;73.78;100739.69;5074624;28;20048;-54
2021/07/26 01:36:49;;;;;;;11.45;5.40;;;;;;;20.30;73.58;100733.00;5074585;28;20052;-56
2021/07/26 01:39:16;;;;;;;8.48;5.22;;;;;;;20.25;73.44;100739.53;5074284;28;20045;-56
2021/07/26 01:41:44;;;;;;;8.88;5.55;;;;;;;20.15;73.53;100742.72;5074646;28;20055;-56
2021/07/26 01:44:12;;;;;;;12.55;5.22;;;;;;;20.02;74.13;100738.25;5074455;28;20045;-56
2021/07/26 01:47:03;;;;;;;10.05;5.35;;;;;;;19.93;74.70;100738.28;5074819;28;20051;-53
2021/07/26 01:49:59;;;;;;;7.70;4.90;;;;;;;19.86;74.78;100738.78;5059757;28;20041;-53
2021/07/26 01:52:27;;;;;;;9.65;4.95;;;;;;;19.85;75.02;100737.19;5056402;28;20442;-56
2021/07/26 01:54:55;;;;;;;9.18;5.32;;;;;;;19.88;74.88;100739.28;5074504;28;20052;-56
2021/07/26 01:57:22;;;;;;;8.07;5.05;;;;;;;19.89;74.71;100737.31;5074153;28;20047;-57
2021/07/26 01:59:51;;;;;;;7.97;4.88;;;;;;;19.91;74.83;100738.59;5074589;28;20040;-51
2021/07/26 02:02:19;;;;;;;8.13;5.28;;;;;;;19.90;74.62;100745.28;5040804;28;20398;-53
2021/07/26 02:04:48;;;;;;;11.75;5.30;;;;;;;19.89;74.65;100742.84;5073823;28;20434;-50
2021/07/26 02:07:15;;;;;;;8.82;4.70;;;;;;;19.90;74.95;100748.06;5074046;28;20055;-56
2021/07/26 02:09:43;;;;;;;7.40;4.78;;;;;;;19.92;74.72;100747.72;5074025;28;20044;-56
2021/07/26 02:12:10;;;;;;;9.70;5.35;;;;;;;19.93;74.52;100741.84;5074041;28;20410;-54
2021/07/26 02:14:38;;;;;;;9.90;5.65;;;;;;;19.91;74.32;100744.13;5074066;28;20059;-56
2021/07/26 02:17:06;;;;;;;9.43;4.68;;;;;;;19.87;74.74;100748.72;5073874;28;20506;-56
2021/07/26 02:19:34;;;;;;;9.13;5.15;;;;;;;19.86;74.59;100757.34;5073998;28;20063;-58
2021/07/26 02:22:02;;;;;;;11.27;5.57;;;;;;;19.82;74.54;100750.84;5073852;28;20110;-56
2021/07/26 02:24:30;;;;;;;10.18;5.35;;;;;;;19.77;74.85;100758.22;5073534;28;20052;-56
2021/07/26 02:26:57;;;;;;;9.52;5.65;;;;;;;19.71;74.95;100754.00;5073968;28;20051;-57
2021/07/26 02:29:26;;;;;;;9.43;5.13;;;;;;;19.63;75.26;100756.78;5073751;28;20048;-54
2021/07/26 02:31:53;;;;;;;9.00;5.18;;;;;;;19.62;75.82;100755.94;5073507;28;20499;-58
2021/07/26 02:34:21;;;;;;;9.18;5.18;;;;;;;19.64;75.51;100759.19;5073607;28;20063;-58
2021/07/26 02:36:48;;;;;;;8.30;5.25;;;;;;;19.65;75.33;100752.53;5073138;28;20036;-57
2021/07/26 02:39:16;;;;;;;12.82;5.32;;;;;;;19.63;75.46;100757.59;5073752;28;20497;-57
2021/07/26 02:41:43;;;;;;;9.30;5.38;;;;;;;19.62;75.47;100755.13;5073561;28;20403;-57
2021/07/26 02:44:11;;;;;;;8.98;5.35;;;;;;;19.62;75.27;100755.13;5073660;28;20032;-56
2021/07/26 02:46:39;;;;;;;9.10;5.07;;;;;;;19.55;75.46;100753.72;5073180;28;20063;-56
2021/07/26 02:49:06;;;;;;;9.63;5.40;;;;;;;19.51;75.52;100749.97;5073396;28;20043;-56
2021/07/26 02:51:34;;;;;;;11.02;5.90;;;;;;;19.47;75.55;100760.06;5073002;28;20037;-58
2021/07/26 02:54:01;;;;;;;10.77;6.03;;;;;;;19.43;75.78;100759.09;5073055;28;20076;-57
2021/07/26 02:56:32;;;;;;;10.07;5.15;;;;;;;19.39;75.87;100760.09;5073216;28;20046;-57
2021/07/26 02:58:59;;;;;;;9.32;5.40;;;;;;;19.36;76.07;100759.63;5073136;28;20048;-55
2021/07/26 03:01:27;;;;;;;8.60;5.10;;;;;;;19.38;76.30;100767.56;5072667;28;20050;-56
2021/07/26 03:03:54;;;;;;;8.75;4.78;;;;;;;19.39;75.91;100774.72;5073693;28;20044;-54
2021/07/26 03:06:23;;;;;;;11.90;5.43;;;;;;;19.39;75.81;100780.25;5072547;28;20056;-57
2021/07/26 03:08:51;;;;;;;10.40;5.53;;;;;;;19.40;75.77;100770.81;5073201;28;20570;-54
2021/07/26 03:11:18;;;;;;;8.98;5.57;;;;;;;19.45;75.49;100778.91;5072984;28;20043;-58
2021/07/26 03:13:46;;;;;;;9.82;4.93;;;;;;;19.46;75.58;100769.50;5072960;28;20056;-56
2021/07/26 03:16:15;;;;;;;8.02;4.93;;;;;;;19.47;75.33;100782.16;5072625;28;20097;-54
2021/07/26 03:18:43;;;;;;;9.23;5.13;;;;;;;19.46;75.05;100774.19;5072894;28;20041;-55
2021/07/26 03:21:15;;;;;;;9.05;5.15;;;;;;;19.44;75.15;100769.03;5072218;28;20033;-54
2021/07/26 03:23:43;;;;;;;9.52;4.95;;;;;;;19.44;75.25;100777.31;5055075;28;20047;-58
2021/07/26 03:26:12;;;;;;;10.57;5.20;;;;;;;19.45;75.23;100784.44;5072719;28;20120;-57
2021/07/26 03:28:39;;;;;;;7.57;4.90;;;;;;;19.48;74.87;100772.75;5072968;28;20047;-52
2021/07/26 03:31:07;;;;;;;9.88;5.22;;;;;;;19.49;74.58;100774.38;5072592;28;20127;-51
2021/07/26 03:33:35;;;;;;;8.82;5.25;;;;;;;19.48;74.70;100782.97;5072402;28;20045;-52
2021/07/26 03:36:03;;;;;;;8.95;5.10;;;;;;;19.45;74.67;100783.63;5072309;28;20060;-55
2021/07/26 03:38:30;;;;;;;10.38;5.25;;;;;;;19.41;74.91;100783.50;5055012;28;20387;-55
2021/07/26 03:40:58;;;;;;;8.55;4.80;;;;;;;19.41;74.84;100783.50;5072872;28;20054;-56
2021/07/26 03:43:27;;;;;;;11.88;5.32;;;;;;;19.40;74.85;100776.34;5054982;28;20481;-57
2021/07/26 03:45:55;;;;;;;10.25;5.10;;;;;;;19.36;74.88;100780.88;5072273;28;20401;-55
2021/07/26 03:48:22;;;;;;;7.70;4.97;;;;;;;19.35;75.34;100791.13;5072449;28;20041;-56
2021/07/26 03:50:50;;;;;;;8.75;5.30;;;;;;;19.35;75.09;100782.03;5071855;28;20040;-52
2021/07/26 03:53:18;;;;;;;9.02;5.53;;;;;;;19.36;74.93;100786.41;5072520;28;20070;-56
2021/07/26 03:55:45;;;;;;;9.32;5.70;;;;;;;19.38;75.03;100789.66;5054179;28;20435;-57
2021/07/26 03:58:13;;;;;;;8.40;5.22;;;;;;;19.42;74.75;100798.94;5072639;28;20044;-56
2021/07/26 04:00:41;;;;;;;8.65;4.93;;;;;;;19.44;74.63;100802.19;5072159;28;20048;-55
2021/07/26 04:05:50;;;;;;;9.75;5.00;;;;;;;19.44;74.37;100810.47;5071748;28;20518;-55
2021/07/26 04:08:22;;;;;;;11.73;5.20;;;;;;;19.45;74.51;100811.28;5072413;28;20037;-56
2021/07/26 04:11:02;;;;;;;8.45;5.25;;;;;;;19.47;74.33;100804.28;5072361;28;20372;-58
2021/07/26 04:13:32;;;;;;;11.63;5.22;;;;;;;19.48;74.26;100816.97;5071507;28;20064;-56
2021/07/26 04:16:00;;;;;;;8.35;5.03;;;;;;;19.48;74.22;100814.22;5071751;28;20094;-57
2021/07/26 04:18:29;;;;;;;8.80;4.80;;;;;;;19.48;73.94;100816.97;5071746;28;20353;-58
2021/07/26 04:20:56;;;;;;;11.02;5.30;;;;;;;19.50;73.91;100811.09;5072159;28;20037;-56
2021/07/26 04:23:24;;;;;;;8.93;4.97;;;;;;;19.52;73.96;100808.81;5071768;28;20036;-57
2021/07/26 04:25:52;;;;;;;9.73;4.82;;;;;;;19.51;73.58;100812.75;5072004;28;20056;-58
2021/07/26 04:28:19;;;;;;;9.50;5.55;;;;;;;19.50;73.68;100809.13;5072012;28;20051;-57
2021/07/26 04:30:48;;;;;;;9.30;4.95;;;;;;;19.49;73.84;100810.28;5071850;28;20072;-58
2021/07/26 04:33:16;;;;;;;8.60;5.10;;;;;;;19.49;73.74;100821.34;5071216;28;20064;-56
2021/07/26 04:35:44;;;;;;;8.55;4.65;;;;;;;19.48;73.93;100819.75;5071689;28;20044;-57
2021/07/26 04:38:11;;;;;;;11.90;4.82;;;;;;;19.48;73.92;100816.97;5053952;28;20057;-58
2021/07/26 04:40:39;;;;;;;9.57;4.90;;;;;;;19.47;73.79;100820.84;5071953;28;20405;-55
2021/07/26 04:43:06;;;;;;;9.15;5.38;;;;;;;19.46;73.99;100816.47;5071907;28;20064;-56
2021/07/26 04:45:34;;;;;;;10.68;5.60;;;;;;;19.48;73.73;100825.25;5071577;28;20053;-58
2021/07/26 04:48:01;;;;;;;9.10;4.88;;;;;;;19.48;73.71;100822.50;5071277;28;20036;-53
2021/07/26 04:50:29;;;;;;;10.95;5.18;;;;;;;19.47;73.57;100820.84;5071550;28;20055;-58
2021/07/26 04:52:56;;;;;;;8.55;5.10;;;;;;;19.46;73.54;100819.25;5071631;28;20477;-57
2021/07/26 04:55:24;;;;;;;6.35;4.28;;;;;;;19.45;73.55;100819.56;5071544;28;20058;-59
2021/07/26 04:58:10;;;;;;;8.55;4.68;;;;;;;19.41;73.99;100824.94;5071897;28;20040;-61
2021/07/26 05:00:38;;;;;;;9.65;4.72;;;;;;;19.43;73.83;100819.88;5071283;28;20555;-62
2021/07/26 05:03:08;;;;;;;7.30;4.85;;;;;;;19.43;73.97;100830.94;5071251;28;20086;-62
2021/07/26 05:05:36;;;;;;;11.18;5.40;;;;;;;19.43;73.76;100821.84;5053620;28;20127;-61
2021/07/26 05:08:05;;;;;;;10.45;5.88;;;;;;;19.41;73.58;100827.72;5071655;28;20486;-60
2021/07/26 05:10:32;;;;;;;9.18;5.25;;;;;;;19.39;74.13;100823.66;5071513;28;20049;-62
2021/07/26 05:13:00;;;;;;;9.82;5.18;;;;;;;19.39;74.14;100818.94;5071507;28;20041;-61
2021/07/26 05:15:28;;;;;;;8.90;5.10;;;;;;;19.39;74.14;100821.69;5070944;28;20047;-62
2021/07/26 05:17:55;;;;;;;8.73;5.05;;;;;;;19.38;74.22;100822.81;5071117;28;20041;-61
2021/07/26 05:20:23;;;;;;;8.45;4.85;;;;;;;19.37;74.26;100823.97;5071216;28;20056;-62
2021/07/26 05:22:50;;;;;;;9.45;5.03;;;;;;;19.36;74.11;100825.94;5071328;28;20040;-61
2021/07/26 05:25:18;;;;;;;9.77;5.05;;;;;;;19.38;74.26;100822.81;5074267;28;20052;-62
2021/07/26 05:27:45;;;;;;;10.05;5.13;;;;;;;19.40;74.18;100820.53;4365757;28;10000393;-62
2021/07/26 05:30:13;;;;;;;9.93;5.22;;;;;;;19.42;73.89;100823.78;5072058;28;20051;-61
2021/07/26 05:32:41;;;;;;;7.63;4.53;;;;;;;19.44;74.08;100820.72;5072520;28;20057;-61
2021/07/26 05:35:09;;;;;;;9.70;5.18;;;;;;;19.44;74.05;100821.53;5072694;28;20042;-61
2021/07/26 05:37:36;;;;;;;9.20;4.80;;;;;;;19.46;73.98;100830.31;5072863;28;20051;-61
2021/07/26 05:40:05;;;;;;;11.07;5.25;;;;;;;19.49;73.93;100821.34;5072210;28;20055;-61
2021/07/26 05:42:32;;;;;;;11.63;5.55;;;;;;;19.48;73.86;100825.25;5072599;28;20036;-60
2021/07/26 05:45:03;;;;;;;10.90;5.22;;;;;;;19.45;73.95;100827.84;5072264;28;20051;-62
2021/07/26 05:47:31;;;;;;;9.05;4.95;;;;;;;19.43;74.17;100819.06;5070774;28;20047;-61
2021/07/26 05:49:59;;;;;;;8.32;4.80;;;;;;;19.42;74.09;100825.75;5072313;28;20048;-61
2021/07/26 05:52:26;;;;;;;10.00;5.20;;;;;;;19.46;74.03;100826.69;5071738;28;20067;-59
2021/07/26 05:54:54;;;;;;;9.13;4.80;;;;;;;19.46;73.90;100819.25;5072444;28;20044;-62
2021/07/26 05:57:24;;;;;;;7.85;4.85;;;;;;;19.49;73.76;100826.88;5072206;28;20056;-62
2021/07/26 05:59:55;;;;;;;10.27;4.35;;;;;;;19.52;73.63;100826.22;5071697;28;20045;-61
2021/07/26 06:02:23;;;;;;;8.68;4.53;;;;;;;19.59;73.29;100826.50;5071787;28;20056;-61
2021/07/26 06:04:51;;;;;;;9.18;4.50;;;;;;;19.68;72.87;100821.00;5071316;28;20442;-62
2021/07/26 06:07:19;;;;;;;9.65;4.75;;;;;;;19.69;73.06;100822.63;5071745;28;20131;-62
2021/07/26 06:09:46;;;;;;;9.02;4.90;;;;;;;19.66;73.11;100825.22;5071884;28;20135;-62
2021/07/26 06:12:14;;;;;;;10.95;5.40;;;;;;;19.65;73.33;100821.66;5072163;28;20052;-62
2021/07/26 06:14:41;;;;;;;9.90;5.35;;;;;;;19.65;73.33;100827.19;5071016;28;20485;-59
2021/07/26 06:17:11;;;;;;;9.77;5.03;;;;;;;19.65;73.42;100829.94;5073183;28;20094;-59
2021/07/26 06:19:39;;;;;;;8.73;4.32;;;;;;;19.74;72.44;100825.19;5069047;28;20052;-59
2021/07/26 06:22:06;;;;;;;10.60;4.47;;;;;;;19.74;73.05;100827.16;5073687;28;20056;-59
2021/07/26 06:24:34;;;;;;;6.88;4.03;;;;;;;19.73;72.64;100828.31;5073768;28;20052;-59
2021/07/26 06:27:02;;;;;;;10.80;4.78;;;;;;;19.77;73.07;100823.72;5073331;28;20045;-58
2021/07/26 06:29:29;;;;;;;7.93;4.43;;;;;;;19.78;73.36;100834.47;5073147;28;20048;-58
2021/07/26 06:31:57;;;;;;;17.73;6.15;;;;;;;19.86;72.26;100827.28;5073038;28;20051;-61
2021/07/26 06:34:24;;;;;;;17.88;6.57;;;;;;;19.91;72.27;100835.38;5073612;28;20044;-57
2021/07/26 06:36:55;;;;;;;13.55;5.90;;;;;;;20.05;71.28;100834.38;5072585;28;20045;-58
2021/07/26 06:39:23;;;;;;;14.10;5.60;;;;;;;20.04;71.46;100832.75;5073579;28;20607;-57
2021/07/26 06:41:51;;;;;;;12.63;6.03;;;;;;;20.03;71.81;100833.91;5073414;28;20384;-56
2021/07/26 06:44:19;;;;;;;19.50;7.35;;;;;;;20.02;71.68;100829.50;5072996;28;20036;-61
2021/07/26 06:46:46;;;;;;;31.73;9.02;;;;;;;20.05;71.33;100835.19;5073471;28;20438;-62
2021/07/26 06:49:15;;;;;;;18.98;7.40;;;;;;;20.06;71.61;100830.47;5073311;28;20132;-61
2021/07/26 06:51:42;;;;;;;14.38;6.68;;;;;;;20.04;71.76;100830.81;5073400;28;20029;-61
2021/07/26 06:54:10;;;;;;;10.02;5.40;;;;;;;20.00;72.08;100836.16;5073207;28;20075;-60
2021/07/26 06:56:38;;;;;;;10.25;5.38;;;;;;;20.02;71.77;100835.03;5073357;28;20113;-62
2021/07/26 06:59:05;;;;;;;9.00;5.47;;;;;;;20.02;72.21;100835.03;5072735;28;20491;-61
2021/07/26 07:01:33;;;;;;;10.35;5.60;;;;;;;20.04;72.04;100833.56;5073058;28;20094;-62
2021/07/26 07:04:00;;;;;;;9.43;5.25;;;;;;;20.08;71.87;100823.44;5073253;28;20044;-60
2021/07/26 07:06:28;;;;;;;9.25;4.75;;;;;;;20.13;71.13;100826.06;5024745;28;20075;-62
2021/07/26 07:08:55;;;;;;;8.48;5.38;;;;;;;20.17;71.48;100840.81;5073238;28;20045;-59
2021/07/26 07:11:24;;;;;;;11.20;5.40;;;;;;;20.20;71.05;100839.34;5055152;28;20380;-59
2021/07/26 07:13:54;;;;;;;7.15;4.35;;;;;;;20.22;70.68;100840.63;5072702;28;20498;-57
2021/07/26 07:16:23;;;;;;;9.13;4.97;;;;;;;20.29;70.59;100840.13;5072639;28;20033;-59
2021/07/26 07:18:52;;;;;;;8.07;5.18;;;;;;;20.31;70.93;100837.81;5073097;28;20506;-57
2021/07/26 07:21:25;;;;;;;8.50;5.45;;;;;;;20.29;71.51;100845.66;5072576;28;20044;-56
2021/07/26 07:23:54;;;;;;;6.63;4.13;;;;;;;20.32;70.04;100844.16;5072885;28;20380;-54
2021/07/26 07:26:23;;;;;;;10.27;5.10;;;;;;;20.32;71.08;100833.91;5072169;28;20412;-54
2021/07/26 07:28:55;;;;;;;10.02;5.43;;;;;;;20.31;71.42;100837.81;5072372;28;20044;-55
2021/07/26 07:31:26;;;;;;;7.00;4.15;;;;;;;20.33;71.29;100846.63;5072476;28;20053;-57
2021/07/26 07:33:57;;;;;;;11.73;5.45;;;;;;;20.35;70.65;100849.88;5054417;28;20056;-57
2021/07/26 07:36:26;;;;;;;6.88;4.22;;;;;;;20.37;70.66;100846.75;5072238;28;20060;-56
2021/07/26 07:38:59;;;;;;;7.28;4.43;;;;;;;20.39;70.96;100856.34;5072431;28;20051;-59
2021/07/26 07:41:27;;;;;;;10.88;5.50;;;;;;;20.43;70.83;100857.28;5072040;28;20041;-59
2021/07/26 07:43:54;;;;;;;7.57;4.25;;;;;;;20.44;70.76;100852.56;5072375;28;20044;-58
2021/07/26 07:46:22;;;;;;;9.27;4.80;;;;;;;20.42;70.82;100855.69;5072070;28;20055;-57
2021/07/26 07:48:50;;;;;;;7.20;3.88;;;;;;;20.42;70.44;100852.91;5072335;28;20042;-58
2021/07/26 07:51:18;;;;;;;7.30;4.18;;;;;;;20.46;70.33;100852.25;5054531;28;20064;-58
2021/07/26 07:53:48;;;;;;;9.65;4.88;;;;;;;20.49;70.19;100857.09;5072025;28;20056;-58
2021/07/26 07:56:16;;;;;;;9.57;4.75;;;;;;;20.54;69.69;100846.66;5057949;28;20041;-57
2021/07/26 07:58:44;;;;;;;6.15;3.67;;;;;;;20.58;69.36;100853.16;5072078;28;20534;-57
2021/07/26 08:01:11;;;;;;;7.30;4.25;;;;;;;20.60;69.94;100850.06;5072211;28;20048;-56
2021/07/26 08:03:39;;;;;;;221.98;20.00;;;;;;;20.59;69.57;100851.22;5072090;28;20457;-57
2021/07/26 08:06:07;;;;;;;9.15;3.88;;;;;;;20.67;68.96;100844.00;5071469;28;20032;-58
2021/07/26 08:08:35;;;;;;;6.20;3.80;;;;;;;20.69;69.12;100847.25;5072081;28;20036;-56
2021/07/26 08:11:05;;;;;;;7.88;4.40;;;;;;;20.73;69.27;100849.00;5071484;28;20044;-57
2021/07/26 08:13:37;;;;;;;9.65;4.50;;;;;;;20.79;69.50;100853.19;5072108;28;20094;-56
2021/07/26 08:16:05;;;;;;;8.38;3.70;;;;;;;20.85;68.56;100856.56;5071618;28;20048;-56
2021/07/26 08:18:44;;;;;;;5.35;3.42;;;;;;;20.88;68.45;100855.91;5072138;28;20029;-57
2021/07/26 08:21:11;;;;;;;7.10;3.53;;;;;;;20.88;68.10;100860.63;5071831;28;20402;-57
2021/07/26 08:23:39;;;;;;;5.60;3.33;;;;;;;20.87;68.02;100865.34;5071464;28;20041;-56
2021/07/26 08:26:06;;;;;;;6.50;3.55;;;;;;;20.79;68.39;100864.28;5071645;28;20047;-57
2021/07/26 08:28:34;;;;;;;5.47;3.17;;;;;;;20.77;68.29;100868.53;5072026;28;20036;-58
2021/07/26 08:31:02;;;;;;;6.88;3.42;;;;;;;20.75;68.39;100868.84;5071869;28;20037;-58
2021/07/26 08:33:29;;;;;;;6.85;3.45;;;;;;;20.76;68.61;100864.97;5071820;28;20059;-58
2021/07/26 08:35:57;;;;;;;4.80;3.10;;;;;;;20.78;68.21;100868.22;5071604;28;20094;-56
2021/07/26 08:38:25;;;;;;;8.70;4.25;;;;;;;20.78;68.18;100868.22;5071550;28;20040;-57
2021/07/26 08:40:52;;;;;;;9.32;3.40;;;;;;;20.73;68.03;100864.81;5053736;28;20048;-57
2021/07/26 08:43:23;;;;;;;4.15;2.90;;;;;;;20.71;68.34;100867.94;5071808;28;20128;-57
2021/07/26 08:45:51;;;;;;;6.18;3.58;;;;;;;20.78;68.03;100872.91;5071255;28;20075;-55
2021/07/26 08:48:19;;;;;;;6.93;3.13;;;;;;;20.78;67.94;100861.84;5071241;28;20052;-52
2021/07/26 08:50:49;;;;;;;4.80;3.25;;;;;;;20.79;68.05;100869.00;5053743;28;20036;-57
2021/07/26 08:53:19;;;;;;;8.13;3.30;;;;;;;20.83;67.64;100864.44;5071507;28;20040;-57
2021/07/26 08:55:50;;;;;;;5.85;3.55;;;;;;;20.85;67.83;100864.88;5053723;28;20048;-56
2021/07/26 08:58:17;;;;;;;6.53;3.28;;;;;;;20.87;67.72;100868.13;5053906;28;20056;-56
2021/07/26 09:00:45;;;;;;;7.72;3.83;;;;;;;20.88;67.17;100866.16;5075269;28;20048;-57
2021/07/26 09:03:13;;;;;;;5.13;2.92;;;;;;;20.94;67.28;100870.38;5075185;28;20454;-56
2021/07/26 09:05:43;;;;;;;5.18;3.03;;;;;;;21.02;67.04;100863.94;5075311;28;20060;-57
2021/07/26 09:08:11;;;;;;;6.65;2.78;;;;;;;21.04;66.71;100869.97;5061049;28;20062;-57
2021/07/26 09:10:43;;;;;;;5.88;3.20;;;;;;;21.11;66.21;100866.66;5057235;28;20402;-53
2021/07/26 09:13:12;;;;;;;8.88;3.58;;;;;;;21.16;65.93;100867.25;5075125;28;20120;-57
2021/07/26 09:15:41;;;;;;;5.88;3.30;;;;;;;21.18;66.19;100870.50;5074671;28;20044;-53
2021/07/26 09:18:10;;;;;;;5.85;3.22;;;;;;;21.19;65.84;100861.06;5074854;28;20116;-56
2021/07/26 09:20:42;;;;;;;5.70;3.13;;;;;;;21.21;64.52;100869.84;5056976;28;20769;-54
2021/07/26 09:23:15;;;;;;;7.97;3.17;;;;;;;21.21;63.81;100869.84;5074322;28;20036;-56
2021/07/26 09:25:52;;;;;;;5.38;3.15;;;;;;;21.18;64.09;100880.78;5056706;28;20043;-56
2021/07/26 09:28:20;;;;;;;6.65;2.95;;;;;;;21.18;64.90;100873.25;5074675;28;20036;-53
2021/07/26 09:30:53;;;;;;;5.15;2.90;;;;;;;21.19;64.88;100876.84;5074396;28;20036;-57
2021/07/26 09:33:29;;;;;;;4.55;2.65;;;;;;;21.19;65.23;100880.44;5074279;28;20520;-53
2021/07/26 09:36:20;;;;;;;8.40;3.13;;;;;;;21.18;65.32;100878.81;5074654;28;20051;-56
2021/07/26 09:38:57;;;;;;;6.07;3.15;;;;;;;21.25;64.87;100884.63;5067626;28;20040;-53
2021/07/26 09:41:44;;;;;;;8.52;3.10;;;;;;;21.26;64.38;100877.09;5074558;28;20054;-53
2021/07/26 09:44:12;;;;;;;3.92;2.55;;;;;;;21.27;64.57;100873.22;5073171;28;20049;-56
2021/07/26 09:46:41;;;;;;;4.53;2.72;;;;;;;21.26;64.32;100872.41;5074196;28;20051;-56
2021/07/26 09:49:17;;;;;;;4.45;2.78;;;;;;;21.28;64.37;100880.34;5074231;28;20048;-53
2021/07/26 09:52:06;;;;;;;6.80;2.70;;;;;;;21.37;64.04;100877.53;5074313;28;20048;-57
2021/07/26 09:54:48;;;;;;;6.43;2.88;;;;;;;21.45;64.63;100884.97;5074559;28;20063;-57
2021/07/26 09:57:24;;;;;;;4.82;2.72;;;;;;;21.52;63.83;100884.41;5056772;28;20127;-57
2021/07/26 09:59:52;;;;;;;5.55;3.00;;;;;;;21.57;63.36;100881.44;5060153;28;20051;-56
2021/07/26 10:02:24;;;;;;;4.40;2.40;;;;;;;21.58;63.60;100888.63;5074479;28;20036;-55
2021/07/26 10:04:53;;;;;;;10.15;2.80;;;;;;;21.61;63.64;100883.19;5074365;28;20395;-57
2021/07/26 10:07:21;;;;;;;3.95;2.67;;;;;;;21.60;63.24;100889.91;5073767;28;20082;-58
2021/07/26 10:09:48;;;;;;;7.97;2.80;;;;;;;21.64;63.94;100893.59;5073278;28;20514;-58
2021/07/26 10:12:18;;;;;;;3.08;2.42;;;;;;;21.67;64.17;100890.16;5073643;28;20469;-57
2021/07/26 10:14:47;;;;;;;3.60;2.80;;;;;;;21.72;63.43;100902.16;5073841;28;20049;-55
2021/07/26 10:17:15;;;;;;;4.78;2.40;;;;;;;21.75;63.43;100890.41;5073968;28;20127;-57
2021/07/26 10:19:43;;;;;;;5.28;2.55;;;;;;;21.74;63.33;100894.31;5073617;28;20052;-59
2021/07/26 10:22:15;;;;;;;6.18;3.03;;;;;;;21.79;63.23;100894.94;5073528;28;20131;-55
2021/07/26 10:24:52;;;;;;;5.97;2.92;;;;;;;21.86;63.04;100888.78;5055733;28;20044;-57
2021/07/26 10:27:27;;;;;;;5.93;3.75;;;;;;;21.93;62.20;100894.59;5056018;28;20056;-54
2021/07/26 10:29:59;;;;;;;5.03;3.40;;;;;;;21.99;61.85;100890.47;5056194;28;20048;-57
2021/07/26 10:32:29;;;;;;;7.50;3.85;;;;;;;22.03;61.02;100888.63;5073680;28;20048;-57
2021/07/26 10:34:58;;;;;;;9.98;3.50;;;;;;;22.07;60.91;100891.50;5073470;28;20040;-59
2021/07/26 10:37:41;;;;;;;8.02;3.35;;;;;;;22.09;61.17;100887.22;5055164;28;20422;-55
2021/07/26 10:40:31;;;;;;;6.90;3.28;;;;;;;22.12;61.09;100880.19;5073264;28;20045;-56
2021/07/26 10:43:03;;;;;;;6.50;3.20;;;;;;;22.16;61.60;100888.63;5073554;28;20484;-56
2021/07/26 10:45:36;;;;;;;4.00;2.78;;;;;;;22.24;61.07;100885.78;5073282;28;20036;-59
2021/07/26 10:50:53;;;;;;;9.07;3.72;;;;;;;22.30;60.74;100886.38;5072744;28;20044;-58
2021/07/26 10:53:33;;;;;;;3.90;2.90;;;;;;;22.32;61.00;100887.66;5055660;28;20044;-57
2021/07/26 10:56:09;;;;;;;6.40;2.95;;;;;;;22.33;60.65;100880.91;5073322;28;20055;-54
2021/07/26 10:58:39;;;;;;;4.65;3.38;;;;;;;22.36;60.65;100878.63;5073859;28;20080;-58
2021/07/26 11:01:22;;;;;;;4.45;3.13;;;;;;;22.42;61.74;100891.13;5077213;28;20092;-59
2021/07/26 11:03:57;;;;;;;4.82;3.15;;;;;;;22.40;60.40;100891.47;5077537;28;20044;-55
2021/07/26 11:06:40;;;;;;;2.75;2.38;;;;;;;22.43;61.38;100892.72;5059829;28;20043;-63
2021/07/26 11:09:40;;;;;;;4.18;2.60;;;;;;;22.50;60.79;100888.22;5074876;28;20494;-58
2021/07/26 11:12:12;;;;;;;9.38;3.40;;;;;;;22.55;59.75;100887.97;5064396;28;20113;-63
2021/07/26 11:15:12;;;;;;;6.75;3.25;;;;;;;22.61;59.88;100888.56;5055326;28;20041;-59
2021/07/26 11:18:19;;;;;;;4.97;2.95;;;;;;;22.60;60.09;100883.34;5072757;28;20048;-59
2021/07/26 11:20:57;;;;;;;12.73;3.28;;;;;;;22.52;59.46;100880.34;5072246;28;20529;-58
2021/07/26 11:23:44;;;;;;;7.88;3.05;;;;;;;22.50;59.86;100885.44;5072129;28;20040;-60
2021/07/26 11:26:19;;;;;;;9.80;3.40;;;;;;;22.49;60.35;100883.03;5072539;28;20054;-60
2021/07/26 11:28:48;;;;;;;6.63;3.43;;;;;;;22.46;59.55;100875.38;5072410;28;20073;-59
2021/07/26 11:31:33;;;;;;;5.15;3.20;;;;;;;22.44;59.82;100886.84;5072533;28;20060;-58
2021/07/26 11:34:07;;;;;;;8.35;3.70;;;;;;;22.42;60.12;100880.81;5071715;28;20060;-58
2021/07/26 11:36:35;;;;;;;7.55;3.42;;;;;;;22.40;60.07;100874.81;5072304;28;20055;-59
2021/07/26 11:39:04;;;;;;;5.22;3.00;;;;;;;22.42;60.69;100872.50;5072494;28;20056;-61
2021/07/26 11:41:33;;;;;;;5.10;3.38;;;;;;;22.43;60.14;100868.53;5072373;28;20060;-63